Time;durP1;ratioP1;P1;durP2;ratioP2;P2;SDS_P1;SDS_P2;PMS_P1;PMS_P2;Temp;Humidity;BMP_temperature;BMP_pressure;BME280_temperature;BME280_humidity;BME280_pressure;Samples;Min_cycle;Max_cycle;Signal;HPM_P1;HPM_P2
2022/01/20 00:00:53;;;;;;;35.83;17.10;;;0.00;97.90;;;0.44;97.63;98292.16;4961215;28;130094;-80
2022/01/20 00:03:24;;;;;;;36.47;16.70;;;0.00;98.20;;;0.48;97.30;98293.16;4963407;28;130149;-79
2022/01/20 00:08:54;;;;;;;39.47;17.38;;;0.00;98.90;;;0.49;97.42;98292.91;4962790;28;125338;-78
2022/01/20 00:25:56;;;;;;;37.45;17.80;;;0.00;99.90;;;0.48;97.85;98266.47;4950747;28;129726;-80
2022/01/20 00:28:38;;;;;;;40.55;18.48;;;0.00;99.90;;;0.46;97.58;98247.28;4947194;28;125419;-81
2022/01/20 00:31:25;;;;;;;44.88;19.58;;;0.00;99.90;;;0.52;97.42;98257.66;4947166;28;125116;-81
2022/01/20 00:34:07;;;;;;;38.57;19.20;;;0.00;99.90;;;0.62;97.29;98259.44;4961289;28;130125;-80
2022/01/20 00:39:22;;;;;;;39.22;18.20;;;0.10;99.90;;;0.71;96.90;98239.09;4946490;28;125505;-80
2022/01/20 00:41:52;;;;;;;41.13;20.00;;;0.10;99.90;;;0.76;96.43;98242.81;4962919;28;125850;-81
2022/01/20 00:44:21;;;;;;;39.22;18.98;;;0.10;99.90;;;0.68;96.51;98239.66;4946292;28;129289;-81
2022/01/20 00:47:02;;;;;;;41.97;20.80;;;0.10;99.50;;;0.60;97.00;98242.91;4946812;28;128877;-81
2022/01/20 00:49:31;;;;;;;44.95;19.65;;;0.10;99.60;;;0.59;97.11;98235.97;4946785;28;125103;-81
2022/01/20 00:52:00;;;;;;;43.90;20.58;;;0.10;98.90;;;0.62;97.07;98234.63;4961313;28;125934;-81
2022/01/20 00:54:28;;;;;;;45.47;19.90;;;0.10;98.90;;;0.61;96.99;98239.19;4946354;28;130022;-81
2022/01/20 00:56:58;;;;;;;47.08;21.23;;;0.10;99.10;;;0.63;96.91;98237.03;4959631;28;129907;-80
2022/01/20 00:59:29;;;;;;;43.60;20.77;;;0.10;98.90;;;0.47;97.48;98222.19;4962844;28;125362;-79
2022/01/20 01:01:58;;;;;;;42.20;21.58;;;0.00;98.60;;;0.56;97.66;98225.06;4963229;28;125985;-80
2022/01/20 01:04:27;;;;;;;41.30;21.13;;;0.10;99.90;;;0.48;97.31;98218.44;4962665;28;130322;-80
2022/01/20 01:07:18;;;;;;;41.38;20.42;;;0.10;99.30;;;0.47;97.53;98212.31;4962613;28;128499;-80
2022/01/20 01:09:54;;;;;;;50.03;20.98;;;0.00;98.80;;;0.52;97.28;98208.81;4960491;28;126565;-80
2022/01/20 01:12:32;;;;;;;46.88;22.70;;;0.00;98.90;;;0.60;97.16;98188.72;4946150;28;125432;-80
2022/01/20 01:15:03;;;;;;;46.17;21.88;;;0.10;99.90;;;0.54;97.18;98179.94;4960751;28;129838;-81
2022/01/20 01:20:20;;;;;;;44.08;21.13;;;0.00;99.50;;;0.60;97.14;98151.34;4962534;28;125469;-80
2022/01/20 01:22:49;;;;;;;45.67;21.17;;;0.10;99.90;;;0.51;97.38;98143.13;4963107;28;127216;-81
2022/01/20 01:25:18;;;;;;;46.92;22.75;;;0.00;98.80;;;0.58;96.95;98124.94;4995479;28;128810;-81
2022/01/20 01:27:49;;;;;;;44.22;21.60;;;0.00;99.60;;;0.61;97.02;98119.03;4946370;28;128571;-81
2022/01/20 01:33:00;;;;;;;49.30;21.58;;;0.00;99.10;;;0.61;96.78;98111.03;4960264;28;125505;-81
2022/01/20 01:35:28;;;;;;;50.00;23.38;;;0.10;99.90;;;0.56;97.13;98108.38;4945082;28;129879;-80
2022/01/20 01:40:43;;;;;;;44.40;21.98;;;0.00;99.40;;;0.59;97.25;98086.44;4960263;28;125777;-79
2022/01/20 01:43:19;;;;;;;46.85;21.75;;;0.00;99.90;;;0.55;97.35;98085.44;4962069;28;126431;-79
2022/01/20 01:45:50;;;;;;;54.55;23.23;;;0.00;99.90;;;0.51;97.12;98073.72;4962146;28;129912;-78
2022/01/20 01:48:20;;;;;;;54.63;23.75;;;0.00;99.70;;;0.60;96.94;98072.03;4961841;28;128476;-78
2022/01/20 01:50:49;;;;;;;53.28;25.02;;;0.00;99.90;;;0.56;97.07;98064.88;4961102;28;125906;-79
2022/01/20 01:53:20;;;;;;;55.85;24.50;;;0.00;99.90;;;0.48;97.27;98067.09;4946502;28;125409;-79
2022/01/20 01:55:51;;;;;;;54.20;25.38;;;0.00;99.40;;;0.56;96.82;98060.31;4959891;28;102981;-79
2022/01/20 01:58:22;;;;;;;50.53;23.30;;;0.00;99.90;;;0.47;97.55;98048.69;4945630;28;129434;-79
2022/01/20 02:01:09;;;;;;;46.25;23.52;;;0.00;99.90;;;0.46;97.69;98055.09;4959633;28;126330;-79
2022/01/20 02:03:45;;;;;;;49.60;23.75;;;0.00;99.90;;;0.51;97.51;98037.16;4961836;28;128087;-80
2022/01/20 02:06:43;;;;;;;54.50;25.65;;;0.00;99.90;;;0.56;97.17;98022.16;4945581;28;128999;-81
2022/01/20 02:09:26;;;;;;;55.90;24.60;;;0.00;99.90;;;0.59;97.05;98006.34;4945435;28;129682;-80
2022/01/20 02:20:16;;;;;;;55.83;24.42;;;0.10;99.90;;;0.58;97.47;97983.44;4945290;28;129795;-80
2022/01/20 02:22:58;;;;;;;52.28;24.20;;;0.10;99.70;;;0.54;96.91;97969.03;4961457;28;125380;-81
2022/01/20 02:25:38;;;;;;;56.03;25.30;;;0.00;99.60;;;0.54;97.19;97961.03;4961769;28;125442;-80
2022/01/20 02:28:09;;;;;;;53.33;24.75;;;0.00;99.70;;;0.56;97.39;97942.84;4944971;28;130036;-80
2022/01/20 02:30:43;;;;;;;56.65;26.10;;;0.00;99.70;;;0.58;97.14;97955.91;4961456;28;129273;-80
2022/01/20 02:33:16;;;;;;;55.55;24.35;;;0.00;99.80;;;0.62;97.01;97935.59;4968865;28;125546;-80
2022/01/20 02:35:48;;;;;;;55.88;25.17;;;0.00;99.80;;;0.62;97.00;97931.03;4970724;28;124900;-80
2022/01/20 02:38:30;;;;;;;54.88;24.98;;;0.00;99.80;;;0.59;97.40;97934.28;4966245;28;129022;-80
2022/01/20 02:46:32;;;;;;;;;;;0.00;99.50;;;0.51;97.26;97908.22;4962955;28;125649;-79
2022/01/20 02:49:01;;;;;;;50.03;23.13;;;0.00;99.20;;;0.54;97.13;97907.63;4981141;28;130361;-79
2022/01/20 02:51:31;;;;;;;51.40;24.25;;;0.00;99.50;;;0.47;97.65;97897.31;4962544;28;129875;-80
2022/01/20 02:54:02;;;;;;;49.33;23.30;;;0.00;99.70;;;0.45;97.60;97883.47;4963120;28;126081;-78
2022/01/20 02:56:32;;;;;;;49.92;24.13;;;0.00;99.90;;;0.44;98.00;97865.06;4947750;28;125519;-79
2022/01/20 02:59:00;;;;;;;51.70;23.13;;;-0.10;99.90;;;0.49;97.79;97867.66;4964779;28;129409;-79
2022/01/20 03:01:29;;;;;;;52.08;23.88;;;0.00;99.90;;;0.49;97.53;97862.34;4961721;28;129299;-79
2022/01/20 03:04:00;;;;;;;48.25;23.63;;;0.00;99.90;;;0.49;97.50;97852.44;4964554;28;125033;-80
2022/01/20 03:06:30;;;;;;;48.65;22.73;;;0.00;99.90;;;0.52;97.54;97843.06;4961500;28;125729;-80
2022/01/20 03:08:59;;;;;;;50.63;23.15;;;0.00;99.90;;;0.54;97.48;97835.56;4964454;28;129732;-78
2022/01/20 03:11:31;;;;;;;49.97;22.90;;;0.00;99.90;;;0.42;97.93;97829.84;4961853;28;129689;-78
2022/01/20 03:14:00;;;;;;;45.58;22.20;;;0.00;99.90;;;0.41;97.98;97814.94;4948161;28;125362;-78
2022/01/20 03:16:28;;;;;;;45.33;22.98;;;0.00;99.90;;;0.47;97.75;97811.13;4948010;28;126282;-78
2022/01/20 03:18:57;;;;;;;47.47;22.13;;;0.00;99.90;;;0.41;98.24;97801.59;4947611;28;129357;-78
2022/01/20 03:21:25;;;;;;;45.53;21.30;;;0.00;99.90;;;0.44;97.57;97809.03;4964092;28;128414;-78
2022/01/20 03:23:55;;;;;;;48.25;22.98;;;0.00;99.90;;;0.48;97.59;97802.00;4961137;28;125195;-77
2022/01/20 03:26:24;;;;;;;53.38;22.98;;;0.00;99.90;;;0.52;97.56;97789.69;4962535;28;125786;-77
2022/01/20 03:28:52;;;;;;;45.08;20.08;;;0.00;99.90;;;0.46;97.53;97788.16;4962332;28;130113;-78
2022/01/20 03:31:21;;;;;;;47.05;23.15;;;0.00;99.60;;;0.47;97.41;97781.75;4963023;28;130216;-78
2022/01/20 03:33:50;;;;;;;48.35;21.92;;;0.00;99.90;;;0.40;97.73;97786.63;4964040;28;125233;-77
2022/01/20 03:36:18;;;;;;;46.70;22.55;;;0.00;99.40;;;0.40;97.90;97786.63;4964433;28;125126;-78
2022/01/20 03:39:08;;;;;;;44.65;21.02;;;0.00;99.40;;;0.39;97.89;97787.72;4947758;28;129413;-78
2022/01/20 03:41:39;;;;;;;45.58;21.30;;;0.00;99.10;;;0.44;97.74;97775.09;4996994;28;129730;-78
2022/01/20 03:44:21;;;;;;;43.47;22.08;;;0.00;99.60;;;0.30;98.06;97759.00;4947230;28;125623;-77
2022/01/20 03:46:50;;;;;;;48.22;22.17;;;0.00;98.50;;;0.40;97.98;97746.59;4947527;28;126262;-77
2022/01/20 03:49:27;;;;;;;51.47;23.83;;;0.00;98.90;;;0.38;98.27;97738.09;4964026;28;129442;-77
2022/01/20 03:51:57;;;;;;;48.55;22.20;;;0.00;98.10;;;0.39;97.41;97729.00;4963588;28;130031;-79
2022/01/20 03:54:28;;;;;;;50.33;21.85;;;0.00;97.70;;;0.32;98.14;97721.34;4947192;28;125128;-79
2022/01/20 03:57:15;;;;;;;48.78;21.77;;;0.00;97.30;;;0.43;97.62;97716.69;4947381;28;124950;-78
2022/01/20 04:00:02;;;;;;;44.10;21.03;;;0.00;96.60;;;0.42;97.22;97699.06;4961859;28;129743;-77
2022/01/20 04:02:43;;;;;;;44.25;21.35;;;0.00;96.10;;;0.50;96.83;97701.09;4963663;28;129423;-78
2022/01/20 04:05:32;;;;;;;45.35;22.73;;;0.00;95.80;;;0.38;97.03;97701.53;4964483;28;125303;-79
2022/01/20 04:08:21;;;;;;;45.55;21.38;;;0.00;95.00;;;0.23;97.70;97707.84;4964404;28;125366;-78
2022/01/20 04:10:52;;;;;;;46.28;22.45;;;0.00;94.40;;;0.13;98.33;97706.13;4945880;28;128980;-79
2022/01/20 04:13:21;;;;;;;47.63;21.90;;;0.00;94.20;;;0.26;97.92;97704.59;4957064;28;130136;-78
2022/01/20 04:18:32;;;;;;;48.13;23.10;;;0.00;93.50;;;0.32;97.69;97687.44;4960449;28;126545;-79
2022/01/20 04:21:00;;;;;;;49.67;24.98;;;0.00;92.80;;;0.36;97.26;97682.34;4943635;28;130272;-77
2022/01/20 04:23:30;;;;;;;54.95;25.23;;;0.00;92.00;;;0.39;97.04;97687.09;4943460;28;128748;-77
2022/01/20 04:26:01;;;;;;;57.72;24.80;;;0.00;91.90;;;0.33;96.87;97683.72;4943874;28;124684;-78
2022/01/20 04:28:29;;;;;;;44.75;22.92;;;0.00;90.70;;;0.28;97.42;97674.97;4994079;28;124683;-77
2022/01/20 04:30:58;;;;;;;51.55;25.67;;;0.00;90.70;;;0.41;96.94;97671.59;4960072;28;129626;-77
2022/01/20 04:33:26;;;;;;;53.78;24.92;;;0.00;90.90;;;0.46;96.35;97666.16;4967052;28;129748;-76
2022/01/20 04:35:55;;;;;;;53.33;24.42;;;0.00;90.60;;;0.33;96.96;97662.38;4976158;28;126350;-77
2022/01/20 04:38:23;;;;;;;56.85;25.63;;;0.00;90.30;;;0.37;96.76;97665.25;4976706;28;126017;-77
2022/01/20 04:40:51;;;;;;;46.17;25.73;;;0.00;88.30;;;0.43;96.03;97669.41;4962729;28;129625;-77
2022/01/20 04:43:23;;;;;;;55.85;24.30;;;0.00;86.90;;;0.28;95.89;97657.09;4962917;28;129268;-78
2022/01/20 04:45:58;;;;;;;51.95;25.70;;;0.00;80.50;;;0.29;96.24;97661.34;4978981;28;127512;-77
2022/01/20 04:48:41;;;;;;;56.15;25.88;;;0.00;82.00;;;0.26;96.18;97650.47;4977975;28;125381;-77
2022/01/20 04:59:30;;;;;;;51.30;25.92;;;0.00;74.40;;;0.47;94.40;97608.25;4975430;28;125335;-76
2022/01/20 05:01:59;;;;;;;58.25;25.85;;;0.00;72.20;;;0.37;94.28;97597.75;4961829;28;129151;-77
2022/01/20 05:04:48;;;;;;;53.92;27.05;;;0.00;68.20;;;0.39;94.08;97585.69;4965026;28;129140;-79
2022/01/20 05:07:31;;;;;;;49.40;24.50;;;0.00;66.60;;;0.26;93.95;97573.88;4962785;28;125905;-78
2022/01/20 05:10:00;;;;;;;52.40;24.38;;;-0.10;60.90;;;0.12;94.62;97576.47;4980214;28;125351;-76
2022/01/20 05:12:48;;;;;;;47.67;24.38;;;0.00;58.20;;;0.27;93.91;97575.47;4980710;28;129527;-76
2022/01/20 05:15:19;;;;;;;55.65;26.83;;;0.00;58.80;;;0.32;93.66;97562.03;4964413;28;128870;-76
2022/01/20 05:17:48;;;;;;;47.80;26.38;;;-0.10;60.40;;;0.44;92.92;97555.47;4980231;28;124748;-79
2022/01/20 05:20:17;;;;;;;49.42;25.90;;;0.00;59.10;;;0.40;92.78;97551.78;4980918;28;124665;-76
2022/01/20 05:22:46;;;;;;;48.33;26.13;;;0.00;56.10;;;0.38;92.38;97546.75;4980429;28;130380;-77
2022/01/20 05:25:18;;;;;;;50.70;24.63;;;0.00;52.90;;;0.39;91.66;97550.19;4981246;28;129823;-77
2022/01/20 05:27:57;;;;;;;47.13;25.88;;;-0.10;49.00;;;0.35;92.05;97553.44;4981522;28;126107;-79
2022/01/20 05:30:31;;;;;;;49.65;25.80;;;0.00;50.30;;;0.41;91.80;97535.47;4981078;28;126094;-78
2022/01/20 05:33:29;;;;;;;49.40;23.98;;;-0.10;48.70;;;0.36;91.72;97554.25;4970940;28;130400;-79
2022/01/20 05:36:01;;;;;;;49.92;24.42;;;0.00;47.60;;;0.19;91.08;97544.13;4980488;28;129505;-78
2022/01/20 05:38:31;;;;;;;48.95;25.02;;;-0.10;42.30;;;0.15;91.69;97548.44;4980550;28;125494;-80
2022/01/20 05:41:00;;;;;;;48.45;25.33;;;-0.10;42.50;;;0.27;91.53;97551.44;4981712;28;125225;-77
2022/01/20 05:43:31;;;;;;;44.95;25.58;;;-0.10;44.10;;;0.05;91.76;97561.91;4981644;28;130464;-79
2022/01/20 05:46:04;;;;;;;49.05;24.10;;;-0.20;41.00;;;0.15;91.98;97559.13;4960911;28;129285;-79
2022/01/20 05:48:45;;;;;;;49.42;25.77;;;-0.10;42.80;;;0.13;91.45;97555.94;4964627;28;124492;-77
2022/01/20 05:51:35;;;;;;;47.92;26.42;;;-0.20;42.10;;;0.24;91.15;97568.03;4964697;28;125533;-78
2022/01/20 05:54:04;;;;;;;48.42;25.23;;;-0.20;43.60;;;0.21;91.55;97563.28;4962696;28;129289;-76
2022/01/20 05:56:40;;;;;;;50.13;25.50;;;-0.20;43.20;;;0.37;90.76;97557.72;4964915;28;129059;-79
2022/01/20 05:59:09;;;;;;;51.03;25.08;;;-0.10;44.20;;;0.43;90.44;97562.66;4975481;28;124671;-79
2022/01/20 06:01:41;;;;;;;53.58;25.35;;;-0.10;42.80;;;0.28;90.05;97566.38;4964457;28;124833;-81
2022/01/20 06:04:13;;;;;;;47.33;25.02;;;-0.20;40.50;;;0.17;90.72;97567.59;4963793;28;130772;-79
2022/01/20 06:06:44;;;;;;;51.05;26.20;;;-0.20;38.40;;;0.03;91.09;97572.09;4967494;28;129226;-79
2022/01/20 06:09:12;;;;;;;48.25;25.02;;;-0.30;40.50;;;0.14;90.95;97578.84;4990616;28;125874;-79
2022/01/20 06:11:43;;;;;;;53.65;27.05;;;-0.30;40.60;;;-0.04;90.52;97562.59;4970892;28;124538;-79
2022/01/20 06:14:15;;;;;;;46.85;25.45;;;-0.30;36.70;;;-0.18;91.55;97569.72;4967404;28;128962;-82
2022/01/20 06:16:46;;;;;;;54.92;25.08;;;-0.30;39.90;;;-0.16;91.45;97553.44;4983200;28;129671;-81
2022/01/20 06:19:17;;;;;;;50.97;26.88;;;-0.40;38.50;;;-0.41;92.59;97542.81;4964300;28;124754;-78
2022/01/20 06:21:47;;;;;;;52.50;27.83;;;-0.50;40.90;;;-0.28;92.80;97532.53;4965194;28;125343;-80
2022/01/20 06:24:17;;;;;;;56.97;27.70;;;-0.50;42.70;;;-0.32;92.80;97551.00;4977685;28;129778;-79
2022/01/20 06:26:55;;;;;;;54.05;27.73;;;-0.50;43.20;;;-0.39;92.92;97530.03;4980894;28;129030;-79
2022/01/20 06:29:25;;;;;;;56.08;28.25;;;-0.50;43.70;;;-0.50;93.34;97533.88;4981426;28;125390;-79
2022/01/20 06:32:00;;;;;;;56.67;27.77;;;-0.50;44.40;;;-0.43;93.35;97507.69;4980919;28;125056;-81
2022/01/20 06:34:28;;;;;;;54.35;28.02;;;-0.50;45.90;;;-0.38;93.23;97510.28;4964238;28;129542;-81
2022/01/20 06:36:57;;;;;;;56.97;28.25;;;-0.50;45.50;;;-0.39;92.75;97503.38;4979084;28;130310;-81
2022/01/20 06:39:25;;;;;;;58.47;29.85;;;-0.50;45.50;;;-0.33;93.05;97500.63;4964690;28;125430;-80
2022/01/20 06:41:54;;;;;;;58.70;27.77;;;-0.50;45.20;;;-0.17;92.67;97494.00;4964354;28;124886;-80
2022/01/20 06:44:23;;;;;;;55.97;28.65;;;-0.50;47.30;;;-0.17;91.96;97482.53;4963803;28;128975;-81
2022/01/20 06:46:52;;;;;;;49.88;27.40;;;-0.50;46.40;;;-0.17;92.39;97480.66;4964118;28;129713;-81
2022/01/20 06:49:36;;;;;;;54.80;28.83;;;-0.40;48.40;;;-0.14;92.40;97461.44;4980872;28;124662;-80
2022/01/20 06:52:15;;;;;;;58.70;29.17;;;-0.50;49.20;;;-0.09;92.63;97474.66;4978850;28;125628;-81
2022/01/20 06:54:45;;;;;;;56.20;28.48;;;-0.40;49.70;;;-0.05;92.88;97465.00;4962843;28;129541;-81
2022/01/20 06:57:13;;;;;;;64.53;29.60;;;-0.40;53.20;;;0.05;92.54;97468.56;4977530;28;129854;-81
2022/01/20 06:59:42;;;;;;;60.85;28.92;;;-0.40;54.00;;;0.05;92.51;97468.56;4977214;28;126055;-80
2022/01/20 07:02:16;;;;;;;60.08;30.17;;;-0.40;55.20;;;-0.09;93.03;97461.34;4977731;28;125386;-81
2022/01/20 07:04:47;;;;;;;52.70;27.33;;;-0.40;56.50;;;0.00;93.30;97466.81;5012845;28;129796;-81
2022/01/20 07:07:19;;;;;;;66.13;29.40;;;-0.40;62.20;;;0.07;92.92;97466.41;4997118;28;129885;-81
2022/01/20 07:10:11;;;;;;;57.47;27.95;;;-0.40;60.20;;;-0.06;93.17;97473.31;5016634;28;125990;-81
2022/01/20 07:12:46;;;;;;;57.03;29.67;;;-0.40;60.20;;;-0.15;94.51;97465.16;4999953;28;125981;-81
2022/01/20 07:15:17;;;;;;;60.35;29.20;;;-0.40;64.30;;;-0.10;94.73;97467.75;4999987;28;130757;-81
2022/01/20 07:17:47;;;;;;;59.47;28.48;;;-0.40;67.80;;;0.03;94.97;97465.41;4996750;28;130406;-82
2022/01/20 07:20:22;;;;;;;57.35;28.63;;;-0.40;74.00;;;0.06;95.34;97460.28;4999905;28;125807;-82
2022/01/20 07:23:17;;;;;;;55.78;28.70;;;-0.30;76.50;;;0.08;95.70;97459.97;4993952;28;124711;-82
2022/01/20 07:26:01;;;;;;;53.90;28.80;;;-0.30;81.10;;;0.16;95.53;97457.44;5013136;28;129677;-82
2022/01/20 07:28:31;;;;;;;57.97;29.05;;;-0.30;85.20;;;0.17;95.36;97453.72;4964789;28;129234;-81
2022/01/20 07:30:59;;;;;;;57.58;28.15;;;-0.30;84.70;;;0.26;95.19;97437.78;4982958;28;126065;-82
2022/01/20 07:33:28;;;;;;;52.97;27.60;;;-0.30;86.20;;;0.20;95.43;97440.84;4966866;28;125074;-79
2022/01/20 07:36:01;;;;;;;61.33;29.67;;;-0.30;86.20;;;-0.02;97.25;97448.44;4967265;28;129040;-83
2022/01/20 07:38:29;;;;;;;60.67;27.33;;;-0.30;90.10;;;0.05;97.12;97442.72;4984440;28;129347;-78
2022/01/20 07:40:59;;;;;;;54.40;28.20;;;-0.30;92.20;;;0.08;96.96;97452.78;4983798;28;125480;-78
2022/01/20 07:43:27;;;;;;;51.83;26.65;;;-0.30;92.00;;;0.12;97.10;97442.31;4967197;28;124927;-79
2022/01/20 07:45:56;;;;;;;54.15;27.58;;;-0.30;93.10;;;0.17;96.47;97439.56;4983129;28;129537;-81
2022/01/20 07:48:31;;;;;;;47.47;26.15;;;-0.30;92.50;;;0.09;97.38;97445.56;4983553;28;129087;-82
2022/01/20 07:51:19;;;;;;;48.88;26.42;;;-0.30;92.70;;;0.09;97.37;97442.91;4984040;28;125101;-83
2022/01/20 07:53:49;;;;;;;45.72;24.17;;;-0.30;93.60;;;0.05;97.59;97452.56;4984033;28;124553;-82
2022/01/20 07:56:22;;;;;;;46.53;26.20;;;-0.40;93.20;;;-0.01;97.75;97451.88;4983232;28;130155;-80
2022/01/20 07:58:54;;;;;;;48.20;24.80;;;-0.40;93.60;;;-0.02;97.77;97443.09;4968250;28;129930;-86
2022/01/20 08:04:14;;;;;;;52.97;25.50;;;-0.40;94.90;;;0.05;97.70;97431.22;4983320;28;125586;-84
2022/01/20 08:06:44;;;;;;;44.25;23.38;;;-0.30;96.90;;;0.08;97.56;97419.97;4967526;28;129021;-81
2022/01/20 08:09:23;;;;;;;48.08;24.23;;;-0.30;97.10;;;0.09;97.10;97421.56;4997569;28;129842;-74
2022/01/20 08:12:02;;;;;;;45.95;23.40;;;-0.40;96.90;;;0.02;97.71;97399.81;4983554;28;125389;-82
2022/01/20 08:14:53;;;;;;;49.50;25.02;;;-0.40;96.50;;;0.04;97.64;97397.66;4965999;28;125123;-82
2022/01/20 08:17:35;;;;;;;43.13;22.92;;;-0.40;96.60;;;0.03;97.77;97396.84;4965820;28;129165;-83
2022/01/20 08:20:06;;;;;;;46.13;23.98;;;-0.40;96.80;;;0.02;98.12;97402.47;5011851;28;129413;-83
2022/01/20 08:22:36;;;;;;;44.22;24.80;;;-0.40;98.20;;;0.04;98.05;97392.31;4976254;28;125383;-82
2022/01/20 08:25:11;;;;;;;42.20;22.35;;;-0.40;97.60;;;-0.08;98.62;97384.78;4986141;28;124536;-83
2022/01/20 08:27:41;;;;;;;41.13;21.75;;;-0.40;98.10;;;0.03;98.41;97388.84;4985107;28;128961;-84
2022/01/20 08:30:13;;;;;;;45.00;22.95;;;-0.40;99.30;;;-0.01;98.42;97382.53;4985082;28;128952;-83
2022/01/20 08:32:44;;;;;;;41.13;21.38;;;-0.40;98.30;;;0.02;98.05;97395.28;4983682;28;124933;-80
2022/01/20 08:35:39;;;;;;;41.55;22.23;;;-0.40;98.50;;;-0.13;98.63;97399.00;4961098;28;125060;-83
2022/01/20 08:38:14;;;;;;;44.05;22.60;;;-0.40;97.20;;;-0.02;98.49;97381.75;4957984;28;130326;-83
2022/01/20 08:40:46;;;;;;;37.50;20.13;;;-0.40;98.00;;;0.15;97.96;97377.72;4992538;28;130054;-82
2022/01/20 08:43:14;;;;;;;41.42;21.50;;;-0.30;98.70;;;0.30;97.09;97364.09;4959623;28;124918;-82
2022/01/20 08:45:46;;;;;;;33.58;20.45;;;-0.30;98.30;;;0.10;96.53;97353.81;4992754;28;125449;-82
2022/01/20 08:48:17;;;;;;;43.67;23.52;;;-0.40;92.90;;;0.01;96.88;97356.34;4977443;28;129428;-82
2022/01/20 08:51:17;;;;;;;40.25;20.90;;;-0.40;94.50;;;-0.04;97.41;97359.91;4961641;28;128530;-81
2022/01/20 08:53:59;;;;;;;41.75;22.45;;;-0.40;94.30;;;-0.04;97.54;97354.56;4994185;28;126368;-81
2022/01/20 08:56:34;;;;;;;39.00;22.13;;;-0.40;93.90;;;0.07;97.28;97365.84;4981669;28;126947;-82
2022/01/20 08:59:03;;;;;;;43.95;22.08;;;-0.30;93.90;;;0.14;96.85;97360.13;4981426;28;130440;-83
2022/01/20 09:01:35;;;;;;;38.67;22.55;;;-0.30;91.80;;;0.08;96.50;97356.78;4964868;28;129051;-83
2022/01/20 09:04:04;;;;;;;39.50;22.67;;;-0.30;87.80;;;0.26;95.79;97352.41;4980385;28;124674;-82
2022/01/20 09:06:36;;;;;;;38.75;22.00;;;-0.20;89.40;;;0.26;95.40;97346.31;4981477;28;126051;-82
2022/01/20 09:09:33;;;;;;;41.95;22.35;;;-0.20;82.70;;;0.31;95.34;97359.53;4982289;28;129959;-83
2022/01/20 09:12:17;;;;;;;43.38;22.20;;;-0.20;85.40;;;0.46;95.10;97350.44;4979112;28;129549;-82
2022/01/20 09:17:34;;;;;;;42.75;21.88;;;0.00;81.90;;;0.58;94.99;97342.72;4965250;28;125467;-83
2022/01/20 09:20:04;;;;;;;45.22;23.02;;;0.00;79.10;;;0.59;94.95;97328.28;4981432;28;128732;-83
2022/01/20 09:22:33;;;;;;;40.65;23.73;;;0.10;79.50;;;0.65;94.89;97329.75;4979203;28;130217;-80
2022/01/20 09:27:52;;;;;;;41.67;22.00;;;0.10;84.00;;;0.53;96.84;97318.78;4965387;28;124715;-81
2022/01/20 09:30:22;;;;;;;38.47;21.85;;;0.10;87.00;;;0.67;96.43;97321.44;4964277;28;129312;-83
2022/01/20 09:33:02;;;;;;;44.10;23.15;;;0.20;87.80;;;0.65;96.78;97316.41;4965240;28;129102;-82
2022/01/20 09:35:34;;;;;;;44.70;23.50;;;0.20;88.70;;;0.77;96.48;97312.44;4965109;28;124814;-82
2022/01/20 09:38:05;;;;;;;41.42;22.17;;;0.20;88.60;;;0.77;96.92;97307.09;4965668;28;125497;-82
2022/01/20 09:40:38;;;;;;;45.03;23.13;;;0.20;91.20;;;0.81;96.74;97298.19;4965395;28;129103;-80
2022/01/20 09:43:12;;;;;;;41.72;23.30;;;0.20;93.40;;;0.42;97.54;97298.75;4985229;28;129712;-81
2022/01/20 09:45:42;;;;;;;42.95;23.92;;;0.20;91.30;;;0.23;99.77;97298.88;4990116;28;125888;-83
2022/01/20 09:48:12;;;;;;;39.85;22.08;;;0.20;92.70;;;0.45;99.58;97295.50;4984116;28;125528;-82
2022/01/20 09:51:13;;;;;;;37.83;23.55;;;0.20;93.80;;;0.49;98.90;97294.59;4965284;28;130284;-82
2022/01/20 09:53:42;;;;;;;45.55;24.75;;;0.30;93.10;;;0.52;98.34;97290.53;4981090;28;129766;-82
2022/01/20 09:56:44;;;;;;;39.65;22.15;;;0.20;91.90;;;0.57;98.60;97298.44;4982597;28;125819;-83
2022/01/20 09:59:18;;;;;;;40.47;22.90;;;0.30;92.10;;;0.60;97.93;97292.50;4967055;28;125388;-83
2022/01/20 10:01:50;;;;;;;36.60;22.73;;;0.30;90.90;;;0.76;97.71;97289.50;4998519;28;129654;-83
2022/01/20 10:04:30;;;;;;;44.67;24.30;;;0.40;91.90;;;0.62;98.18;97279.63;4966034;28;129531;-82
2022/01/20 10:07:09;;;;;;;40.40;23.67;;;0.30;90.70;;;0.49;98.02;97269.78;4965386;28;125052;-82
2022/01/20 10:09:47;;;;;;;41.10;23.00;;;0.30;90.30;;;0.74;97.66;97275.66;4978208;28;125170;-82
2022/01/20 10:12:40;;;;;;;39.92;23.00;;;0.40;91.70;;;0.62;97.90;97274.28;4964946;28;130313;-81
2022/01/20 10:15:11;;;;;;;39.30;22.65;;;0.40;90.50;;;0.68;97.82;97270.41;4981435;28;129024;-81
2022/01/20 10:18:06;;;;;;;42.97;25.20;;;0.30;91.10;;;0.60;97.76;97279.16;4965016;28;126449;-81
2022/01/20 10:20:36;;;;;;;37.83;22.08;;;0.30;91.00;;;0.52;98.28;97263.84;4965485;28;124207;-82
2022/01/20 10:23:14;;;;;;;44.58;23.52;;;0.30;90.90;;;0.52;98.18;97266.53;4965316;28;129606;-82
2022/01/20 10:25:43;;;;;;;37.22;22.88;;;0.30;90.60;;;0.60;98.35;97252.47;4981367;28;128579;-81
2022/01/20 10:28:57;;;;;;;37.85;21.25;;;0.30;90.70;;;0.78;96.58;97250.72;4973037;28;125109;-82
2022/01/20 10:31:40;;;;;;;37.87;20.90;;;0.50;83.60;;;0.76;96.68;97254.78;4965897;28;125104;-81
2022/01/20 10:34:22;;;;;;;36.85;21.95;;;0.50;80.20;;;0.87;96.30;97238.25;4978505;28;130454;-82
2022/01/20 10:37:13;;;;;;;43.72;21.73;;;0.50;80.80;;;0.78;96.04;97239.25;4964373;28;129115;-81
2022/01/20 10:39:46;;;;;;;35.97;20.25;;;0.50;78.00;;;0.77;96.27;97237.69;4964635;28;125446;-80
2022/01/20 10:42:20;;;;;;;38.42;22.08;;;0.60;73.60;;;0.49;98.04;97235.09;4964888;28;125411;-81
2022/01/20 10:44:54;;;;;;;34.03;20.88;;;0.50;72.00;;;0.67;97.47;97233.34;4981133;28;130150;-81
2022/01/20 10:47:26;;;;;;;34.92;19.80;;;0.60;70.40;;;1.02;94.97;97238.97;4963946;28;129455;-81
2022/01/20 10:49:56;;;;;;;35.25;20.52;;;0.60;68.30;;;0.97;94.74;97221.19;4964649;28;125190;-80
2022/01/20 10:52:36;;;;;;;38.97;19.35;;;0.60;64.40;;;0.80;95.53;97215.72;4979286;28;126013;-81
2022/01/20 10:55:09;;;;;;;36.67;20.65;;;0.60;64.60;;;0.58;96.54;97225.28;4979708;28;129107;-79
2022/01/20 10:57:45;;;;;;;38.08;20.58;;;0.50;65.80;;;0.59;96.20;97226.84;4979053;28;128842;-80
2022/01/20 11:00:19;;;;;;;37.83;20.95;;;0.50;67.70;;;0.32;97.45;97223.16;4964708;28;125541;-80
2022/01/20 11:02:54;;;;;;;32.08;19.17;;;0.40;68.50;;;0.38;97.72;97228.41;4980965;28;125099;-79
2022/01/20 11:05:25;;;;;;;33.35;19.05;;;0.50;68.10;;;0.71;96.80;97211.09;4966102;28;128701;-79
2022/01/20 11:07:55;;;;;;;32.85;19.33;;;0.60;66.50;;;1.03;94.05;97208.50;4967790;28;129281;-79
2022/01/20 11:10:26;;;;;;;32.42;18.27;;;0.70;56.10;;;0.93;93.96;97209.50;4983810;28;126548;-78
2022/01/20 11:13:16;;;;;;;28.50;17.67;;;0.80;51.70;;;1.05;92.43;97196.41;4980953;28;125855;-78
2022/01/20 11:15:51;;;;;;;34.28;17.80;;;0.80;47.10;;;1.11;93.13;97193.59;4967332;28;128828;-78
2022/01/20 11:18:27;;;;;;;29.95;17.63;;;0.80;46.40;;;1.03;93.27;97198.59;4967629;28;129002;-78
2022/01/20 11:21:02;;;;;;;31.52;18.15;;;0.80;45.60;;;1.21;93.11;97182.66;4967456;28;124539;-78
2022/01/20 11:23:41;;;;;;;28.55;17.67;;;0.80;47.90;;;1.09;91.87;97183.19;4966849;28;124326;-77
2022/01/20 11:26:32;;;;;;;30.02;18.17;;;0.80;44.60;;;1.22;91.78;97184.25;4983381;28;129720;-77
2022/01/20 11:29:20;;;;;;;30.10;17.33;;;0.80;44.80;;;1.25;92.00;97188.97;4983455;28;128638;-77
2022/01/20 11:32:26;;;;;;;30.13;17.27;;;0.80;46.10;;;1.22;92.21;97176.22;4965728;28;126441;-77
2022/01/20 11:35:21;;;;;;;30.45;18.45;;;0.90;46.70;;;1.36;91.67;97181.47;4981764;28;126166;-77
2022/01/20 11:38:00;;;;;;;29.02;16.80;;;0.90;46.60;;;1.36;91.67;97179.59;4981808;28;130261;-77
2022/01/20 11:40:28;;;;;;;28.85;17.95;;;0.90;46.90;;;1.37;93.05;97180.38;4981272;28;129691;-76
2022/01/20 11:43:03;;;;;;;32.40;18.80;;;0.90;52.70;;;1.13;95.03;97172.72;4981421;28;125766;-76